Time,TemperatureF,DewpointF,PressureIn,WindDirection,WindDirectionDegrees,WindSpeedMPH,WindSpeedGustMPH,Humidity,HourlyPrecipIn,Conditions,Clouds,dailyrainin,SoftwareType,DateUTC
2013-01-13 00:09:00,54.5,51.6,29.99,ESE,112,3.2,-999.0,90,-99.99,,,0.00,Acu-Link.com,2013-01-13 05:09:00,
2013-01-13 00:25:00,55.2,52.0,29.98,ESE,112,6.8,-999.0,89,-99.99,,,0.00,Acu-Link.com,2013-01-13 05:25:00,
2013-01-13 00:40:00,54.9,52.0,29.96,SSW,202,4.2,-999.0,90,-99.99,,,0.00,Acu-Link.com,2013-01-13 05:40:00,
2013-01-13 00:55:00,54.7,52.4,29.96,ESE,112,5.8,-999.0,92,-99.99,,,0.00,Acu-Link.com,2013-01-13 05:55:00,
2013-01-13 01:12:00,54.9,52.6,29.96,ESE,112,5.3,-999.0,92,-99.99,,,0.00,Acu-Link.com,2013-01-13 06:12:00,
2013-01-13 01:27:00,54.7,52.7,29.95,ESE,112,8.9,-999.0,93,-99.99,,,0.00,Acu-Link.com,2013-01-13 06:27:00,
2013-01-13 01:43:00,54.9,52.9,29.95,East,90,5.3,-999.0,93,-99.99,,,0.00,Acu-Link.com,2013-01-13 06:43:00,
2013-01-13 01:58:00,54.5,52.8,29.95,ESE,112,4.7,-999.0,94,-99.99,,,0.00,Acu-Link.com,2013-01-13 06:58:00,
2013-01-13 02:13:00,54.0,52.6,29.94,South,180,3.2,-999.0,95,-99.99,,,0.00,Acu-Link.com,2013-01-13 07:13:00,
2013-01-13 02:29:00,54.1,52.7,29.94,South,180,4.2,-999.0,95,-99.99,,,0.00,Acu-Link.com,2013-01-13 07:29:00,
2013-01-13 02:44:00,54.0,52.9,29.95,West,270,5.8,-999.0,96,-99.99,,,0.00,Acu-Link.com,2013-01-13 07:44:00,
2013-01-13 02:59:00,54.1,53.3,29.93,South,180,3.7,-999.0,97,-99.99,,,0.00,Acu-Link.com,2013-01-13 07:59:00,
2013-01-13 03:15:00,54.0,53.2,29.93,NNE,22,2.2,-999.0,97,-99.99,,,0.00,Acu-Link.com,2013-01-13 08:15:00,
2013-01-13 03:30:00,53.8,53.2,29.92,SW,225,4.7,-999.0,98,-99.99,,,0.00,Acu-Link.com,2013-01-13 08:30:00,
2013-01-13 03:45:00,53.2,52.6,29.91,WSW,247,1.7,-999.0,98,-99.99,,,0.00,Acu-Link.com,2013-01-13 08:45:00,
2013-01-13 04:01:00,53.2,52.6,29.91,WSW,247,5.3,-999.0,98,-99.99,,,0.00,Acu-Link.com,2013-01-13 09:01:00,
2013-01-13 04:16:00,53.6,53.3,29.90,SSE,157,2.2,-999.0,99,-99.99,,,0.00,Acu-Link.com,2013-01-13 09:16:00,
2013-01-13 04:31:00,52.9,52.6,29.89,WSW,247,3.7,-999.0,99,-99.99,,,0.00,Acu-Link.com,2013-01-13 09:31:00,
2013-01-13 04:47:00,52.9,52.6,29.89,NNW,337,2.2,-999.0,99,-99.99,,,0.00,Acu-Link.com,2013-01-13 09:47:00,
2013-01-13 05:02:00,52.0,51.7,29.89,NE,45,1.1,-999.0,99,-99.99,,,0.00,Acu-Link.com,2013-01-13 10:02:00,
2013-01-13 05:17:00,51.6,51.3,29.89,ESE,112,0.0,-999.0,99,-99.99,,,0.00,Acu-Link.com,2013-01-13 10:17:00,
2013-01-13 05:33:00,52.0,51.7,29.88,SSW,202,3.2,-999.0,99,-99.99,,,0.00,Acu-Link.com,2013-01-13 10:33:00,
2013-01-13 05:48:00,53.4,53.1,29.89,SSE,157,7.3,-999.0,99,-99.99,,,0.00,Acu-Link.com,2013-01-13 10:48:00,
2013-01-13 06:03:00,53.2,52.9,29.88,SSE,157,7.8,-999.0,99,-99.99,,,0.00,Acu-Link.com,2013-01-13 11:03:00,
2013-01-13 06:18:00,53.1,52.8,29.89,South,180,4.7,-999.0,99,-99.99,,,0.00,Acu-Link.com,2013-01-13 11:18:00,
2013-01-13 06:33:00,53.1,52.8,29.89,SE,135,5.8,-999.0,99,-99.99,,,0.00,Acu-Link.com,2013-01-13 11:33:00,
2013-01-13 06:49:00,52.3,52.0,29.90,SSW,202,3.7,-999.0,99,-99.99,,,0.00,Acu-Link.com,2013-01-13 11:49:00,
2013-01-13 07:04:00,52.0,51.7,29.91,WNW,292,2.7,-999.0,99,-99.99,,,0.00,Acu-Link.com,2013-01-13 12:04:00,
2013-01-13 07:20:00,50.9,50.6,29.92,ESE,112,0.0,-999.0,99,-99.99,,,0.00,Acu-Link.com,2013-01-13 12:20:00,
2013-01-13 07:35:00,50.4,50.1,29.92,ENE,67,5.3,-999.0,99,-99.99,,,0.00,Acu-Link.com,2013-01-13 12:35:00,
2013-01-13 07:48:00,50.9,50.4,29.69,South,180,4.3,-999.0,98,-99.99,,,0.00,Acu-Link.com,2013-01-13 12:48:00,
2013-01-13 07:50:00,52.7,50.4,29.93,ESE,112,2.7,-999.0,92,-99.99,,,0.00,Acu-Link.com,2013-01-13 12:50:00,
2013-01-13 08:03:00,53.6,50.1,29.70,ESE,112,3.8,-999.0,88,-99.99,,,0.00,Acu-Link.com,2013-01-13 13:03:00,
2013-01-13 08:18:00,54.0,49.9,29.71,SE,135,2.2,-999.0,86,-99.99,,,0.00,Acu-Link.com,2013-01-13 13:18:00,
2013-01-13 08:23:00,54.0,50.2,29.95,SSE,157,1.7,-999.0,87,-99.99,,,0.00,Acu-Link.com,2013-01-13 13:23:00,
2013-01-13 08:33:00,54.7,49.6,29.72,SSE,157,3.8,-999.0,83,-99.99,,,0.00,Acu-Link.com,2013-01-13 13:33:00,
2013-01-13 08:45:00,55.8,49.7,29.96,SSE,157,6.3,-999.0,80,-99.99,,,0.00,Acu-Link.com,2013-01-13 13:45:00,
2013-01-13 09:00:00,57.6,49.4,29.96,NW,315,7.8,-999.0,74,-99.99,,,0.00,Acu-Link.com,2013-01-13 14:00:00,
2013-01-13 09:04:00,57.4,49.5,29.73,WNW,292,5.1,-999.0,75,-99.99,,,0.00,Acu-Link.com,2013-01-13 14:04:00,
2013-01-13 09:15:00,59.0,50.0,29.97,West,270,8.3,-999.0,72,-99.99,,,0.00,Acu-Link.com,2013-01-13 14:15:00,
2013-01-13 09:19:00,59.4,50.0,29.73,SW,225,8.3,-999.0,71,-99.99,,,0.00,Acu-Link.com,2013-01-13 14:19:00,
2013-01-13 09:31:00,60.4,50.2,29.96,West,270,6.8,-999.0,69,-99.99,,,0.00,Acu-Link.com,2013-01-13 14:31:00,
2013-01-13 09:34:00,60.4,50.2,29.73,SW,225,11.4,-999.0,69,-99.99,,,0.00,Acu-Link.com,2013-01-13 14:34:00,
2013-01-13 09:46:00,61.2,50.6,29.96,West,270,5.3,-999.0,68,-99.99,,,0.00,Acu-Link.com,2013-01-13 14:46:00,
2013-01-13 10:01:00,61.7,50.6,29.96,SW,225,9.9,-999.0,67,-99.99,,,0.00,Acu-Link.com,2013-01-13 15:01:00,
2013-01-13 10:16:00,61.3,51.0,29.96,West,270,8.9,-999.0,69,-99.99,,,0.00,Acu-Link.com,2013-01-13 15:16:00,
2013-01-13 10:20:00,61.3,50.7,29.73,WNW,292,15.4,-999.0,68,-99.99,,,0.00,Acu-Link.com,2013-01-13 15:20:00,
2013-01-13 10:32:00,61.7,51.0,29.96,SSW,202,11.9,-999.0,68,-99.99,,,0.00,Acu-Link.com,2013-01-13 15:32:00,
2013-01-13 10:35:00,61.5,51.3,29.74,ESE,112,5.8,-999.0,69,-99.99,,,0.00,Acu-Link.com,2013-01-13 15:35:00,
2013-01-13 10:47:00,62.2,51.5,29.96,West,270,8.9,-999.0,68,-99.99,,,0.00,Acu-Link.com,2013-01-13 15:47:00,
2013-01-13 10:50:00,62.2,51.5,29.73,NW,315,10.3,-999.0,68,-99.99,,,0.00,Acu-Link.com,2013-01-13 15:50:00,
2013-01-13 11:02:00,61.9,51.6,29.96,West,270,9.9,-999.0,69,-99.99,,,0.00,Acu-Link.com,2013-01-13 16:02:00,
2013-01-13 11:05:00,62.2,51.5,29.73,SSW,202,5.1,-999.0,68,-99.99,,,0.00,Acu-Link.com,2013-01-13 16:05:00,
2013-01-13 11:18:00,62.6,52.3,29.95,West,270,7.8,-999.0,69,-99.99,,,0.00,Acu-Link.com,2013-01-13 16:18:00,
2013-01-13 11:21:00,62.8,52.1,29.73,West,270,6.7,-999.0,68,-99.99,,,0.00,Acu-Link.com,2013-01-13 16:21:00,
2013-01-13 11:33:00,63.0,52.7,29.94,SW,225,9.9,-999.0,69,-99.99,,,0.00,Acu-Link.com,2013-01-13 16:33:00,
2013-01-13 11:48:00,63.1,52.8,29.93,West,270,7.8,-999.0,69,-99.99,,,0.00,Acu-Link.com,2013-01-13 16:48:00,
2013-01-13 11:51:00,63.1,52.8,29.71,West,270,14.1,-999.0,69,-99.99,,,0.00,Acu-Link.com,2013-01-13 16:51:00,
2013-01-13 12:03:00,62.8,52.9,29.93,West,270,14.0,-999.0,70,-99.99,,,0.00,Acu-Link.com,2013-01-13 17:03:00,
2013-01-13 12:06:00,62.8,53.2,29.71,SW,225,8.3,-999.0,71,-99.99,,,0.00,Acu-Link.com,2013-01-13 17:06:00,
2013-01-13 12:18:00,62.4,52.9,29.94,West,270,10.4,-999.0,71,-99.99,,,0.00,Acu-Link.com,2013-01-13 17:18:00,
2013-01-13 12:21:00,62.2,52.7,29.71,WSW,247,7.8,-999.0,71,-99.99,,,0.00,Acu-Link.com,2013-01-13 17:21:00,
2013-01-13 12:34:00,62.1,53.0,29.92,WSW,247,12.5,-999.0,72,-99.99,,,0.00,Acu-Link.com,2013-01-13 17:34:00,
2013-01-13 12:37:00,62.2,53.1,29.70,WSW,247,10.3,-999.0,72,-99.99,,,0.00,Acu-Link.com,2013-01-13 17:37:00,
2013-01-13 12:49:00,61.9,53.1,29.91,WSW,247,4.7,-999.0,73,-99.99,,,0.00,Acu-Link.com,2013-01-13 17:49:00,
2013-01-13 12:52:00,61.9,53.1,29.68,WSW,247,5.8,-999.0,73,-99.99,,,0.00,Acu-Link.com,2013-01-13 17:52:00,
2013-01-13 13:04:00,61.5,52.8,29.91,WSW,247,6.8,-999.0,73,-99.99,,,0.00,Acu-Link.com,2013-01-13 18:04:00,
2013-01-13 13:07:00,61.3,52.6,29.68,SSW,202,11.4,-999.0,73,-99.99,,,0.00,Acu-Link.com,2013-01-13 18:07:00,
2013-01-13 13:19:00,61.2,52.8,29.91,SSW,202,7.3,-999.0,74,-99.99,,,0.00,Acu-Link.com,2013-01-13 18:19:00,
2013-01-13 13:34:00,61.2,52.8,29.90,West,270,4.7,-999.0,74,-99.99,,,0.00,Acu-Link.com,2013-01-13 18:34:00,
2013-01-13 13:50:00,61.7,53.3,29.91,SW,225,7.3,-999.0,74,-99.99,,,0.00,Acu-Link.com,2013-01-13 18:50:00,
2013-01-13 14:05:00,62.2,53.4,29.90,West,270,8.3,-999.0,73,-99.99,,,0.00,Acu-Link.com,2013-01-13 19:05:00,
2013-01-13 14:20:00,62.1,53.7,29.89,SSW,202,4.7,-999.0,74,-99.99,,,0.00,Acu-Link.com,2013-01-13 19:20:00,
2013-01-13 14:36:00,62.1,53.0,29.90,NW,315,14.5,-999.0,72,-99.99,,,0.00,Acu-Link.com,2013-01-13 19:36:00,
2013-01-13 14:51:00,62.2,53.1,29.91,SSW,202,5.8,-999.0,72,-99.99,,,0.00,Acu-Link.com,2013-01-13 19:51:00,
2013-01-13 15:06:00,61.9,52.8,29.90,SSW,202,13.5,-999.0,72,-99.99,,,0.00,Acu-Link.com,2013-01-13 20:06:00,
2013-01-13 15:20:00,62.1,52.9,29.68,SW,225,6.3,-999.0,72,-99.99,,,0.00,Acu-Link.com,2013-01-13 20:20:00,
2013-01-13 15:21:00,62.2,53.1,29.90,WSW,247,4.2,-999.0,72,-99.99,,,0.00,Acu-Link.com,2013-01-13 20:21:00,
2013-01-13 15:35:00,61.9,52.8,29.68,West,270,4.7,-999.0,72,-99.99,,,0.00,Acu-Link.com,2013-01-13 20:35:00,
2013-01-13 15:36:00,61.9,52.8,29.92,WSW,247,6.3,-999.0,72,-99.99,,,0.00,Acu-Link.com,2013-01-13 20:36:00,
2013-01-13 15:50:00,61.3,52.6,29.69,SW,225,5.1,-999.0,73,-99.99,,,0.00,Acu-Link.com,2013-01-13 20:50:00,
2013-01-13 15:52:00,61.3,52.6,29.90,WNW,292,6.3,-999.0,73,-99.99,,,0.00,Acu-Link.com,2013-01-13 20:52:00,
2013-01-13 16:05:00,61.3,52.6,29.69,SSE,157,5.1,-999.0,73,-99.99,,,0.00,Acu-Link.com,2013-01-13 21:05:00,
2013-01-13 16:07:00,61.3,52.6,29.91,SSW,202,2.7,-999.0,73,-99.99,,,0.00,Acu-Link.com,2013-01-13 21:07:00,
2013-01-13 16:21:00,61.3,52.6,29.69,SSW,202,2.7,-999.0,73,-99.99,,,0.00,Acu-Link.com,2013-01-13 21:21:00,
2013-01-13 16:36:00,61.0,52.3,29.69,SSE,157,0.0,-999.0,73,-99.99,,,0.00,Acu-Link.com,2013-01-13 21:36:00,
2013-01-13 16:43:00,61.3,52.6,29.91,West,270,3.7,-999.0,73,-99.99,,,0.00,Acu-Link.com,2013-01-13 21:43:00,
2013-01-13 16:51:00,60.6,52.3,29.70,NNW,337,2.7,-999.0,74,-99.99,,,0.00,Acu-Link.com,2013-01-13 21:51:00,
2013-01-13 16:59:00,60.6,52.3,29.92,SSE,157,2.2,-999.0,74,-99.99,,,0.00,Acu-Link.com,2013-01-13 21:59:00,
2013-01-13 17:06:00,60.1,52.1,29.69,NE,45,6.7,-999.0,75,-99.99,,,0.00,Acu-Link.com,2013-01-13 22:06:00,
2013-01-13 17:17:00,59.9,52.0,29.90,NE,45,4.2,-999.0,75,-99.99,,,0.00,Acu-Link.com,2013-01-13 22:17:00,
2013-01-13 17:22:00,59.7,51.8,29.69,South,180,5.8,-999.0,75,-99.99,,,0.00,Acu-Link.com,2013-01-13 22:22:00,
2013-01-13 17:37:00,60.1,51.8,29.68,SSE,157,2.2,-999.0,74,-99.99,,,0.00,Acu-Link.com,2013-01-13 22:37:00,
2013-01-13 17:42:00,59.7,51.8,29.89,South,180,4.2,-999.0,75,-99.99,,,0.00,Acu-Link.com,2013-01-13 22:42:00,
2013-01-13 17:52:00,59.5,51.6,29.68,South,180,3.8,-999.0,75,-99.99,,,0.00,Acu-Link.com,2013-01-13 22:52:00,
2013-01-13 17:58:00,59.5,51.6,29.90,South,180,1.7,-999.0,75,-99.99,,,0.00,Acu-Link.com,2013-01-13 22:58:00,
2013-01-13 18:07:00,59.5,52.0,29.68,SSE,157,5.8,-999.0,76,-99.99,,,0.00,Acu-Link.com,2013-01-13 23:07:00,
2013-01-13 18:13:00,59.7,52.1,29.90,SSW,202,4.7,-999.0,76,-99.99,,,0.00,Acu-Link.com,2013-01-13 23:13:00,
2013-01-13 18:22:00,59.7,51.8,29.69,SE,135,2.2,-999.0,75,-99.99,,,0.00,Acu-Link.com,2013-01-13 23:22:00,
2013-01-13 18:28:00,59.5,51.9,29.91,SE,135,1.7,-999.0,76,-99.99,,,0.00,Acu-Link.com,2013-01-13 23:28:00,
2013-01-13 18:37:00,59.5,52.0,29.69,WNW,292,2.7,-999.0,76,-99.99,,,0.00,Acu-Link.com,2013-01-13 23:37:00,
2013-01-13 18:44:00,59.7,52.1,29.89,SSW,202,2.7,-999.0,76,-99.99,,,0.00,Acu-Link.com,2013-01-13 23:44:00,
2013-01-13 18:52:00,59.7,51.8,29.68,ESE,112,2.2,-999.0,75,-99.99,,,0.00,Acu-Link.com,2013-01-13 23:52:00,
2013-01-13 18:59:00,59.9,52.0,29.90,NE,45,3.7,-999.0,75,-99.99,,,0.00,Acu-Link.com,2013-01-13 23:59:00,
2013-01-13 19:08:00,60.3,52.3,29.68,ESE,112,3.8,-999.0,75,-99.99,,,0.00,Acu-Link.com,2013-01-14 00:08:00,
2013-01-13 19:14:00,60.4,52.4,29.90,South,180,3.7,-999.0,75,-99.99,,,0.00,Acu-Link.com,2013-01-14 00:14:00,
2013-01-13 19:23:00,60.8,52.5,29.68,SSE,157,2.7,-999.0,74,-99.99,,,0.00,Acu-Link.com,2013-01-14 00:23:00,
2013-01-13 19:29:00,61.0,52.7,29.89,SSE,157,3.2,-999.0,74,-99.99,,,0.00,Acu-Link.com,2013-01-14 00:29:00,
2013-01-13 19:38:00,60.4,52.5,29.67,South,180,4.3,-999.0,75,-99.99,,,0.00,Acu-Link.com,2013-01-14 00:38:00,
2013-01-13 19:45:00,60.4,52.4,29.89,ESE,112,4.2,-999.0,75,-99.99,,,0.00,Acu-Link.com,2013-01-14 00:45:00,
2013-01-13 19:53:00,60.8,53.2,29.67,SE,135,2.7,-999.0,76,-99.99,,,0.00,Acu-Link.com,2013-01-14 00:53:00,
2013-01-13 20:00:00,60.3,53.1,29.88,ESE,112,1.7,-999.0,77,-99.99,,,0.00,Acu-Link.com,2013-01-14 01:00:00,
2013-01-13 20:09:00,60.3,53.0,29.67,ESE,112,2.2,-999.0,77,-99.99,,,0.00,Acu-Link.com,2013-01-14 01:09:00,
2013-01-13 20:15:00,60.1,53.2,29.87,ENE,67,2.7,-999.0,78,-99.99,,,0.00,Acu-Link.com,2013-01-14 01:15:00,
2013-01-13 20:24:00,60.1,53.2,29.67,SE,135,0.0,-999.0,78,-99.99,,,0.00,Acu-Link.com,2013-01-14 01:24:00,
2013-01-13 20:30:00,60.3,53.1,29.88,South,180,5.3,-999.0,77,-99.99,,,0.00,Acu-Link.com,2013-01-14 01:30:00,
2013-01-13 20:39:00,60.4,52.8,29.67,ESE,112,5.8,-999.0,76,-99.99,,,0.00,Acu-Link.com,2013-01-14 01:39:00,
2013-01-13 20:46:00,60.6,53.0,29.87,SSW,202,4.7,-999.0,76,-99.99,,,0.00,Acu-Link.com,2013-01-14 01:46:00,
2013-01-13 20:54:00,60.3,53.0,29.66,WSW,247,3.1,-999.0,77,-99.99,,,0.00,Acu-Link.com,2013-01-14 01:54:00,
2013-01-13 21:02:00,60.3,53.1,29.87,NE,45,2.7,-999.0,77,-99.99,,,0.00,Acu-Link.com,2013-01-14 02:02:00,
2013-01-13 21:09:00,60.1,52.8,29.66,SE,135,1.1,-999.0,77,-99.99,,,0.00,Acu-Link.com,2013-01-14 02:09:00,
2013-01-13 21:24:00,60.1,52.8,29.66,ESE,112,5.1,-999.0,77,-99.99,,,0.00,Acu-Link.com,2013-01-14 02:24:00,
2013-01-13 21:34:00,60.6,53.0,29.87,ESE,112,3.7,-999.0,76,-99.99,,,0.00,Acu-Link.com,2013-01-14 02:34:00,
2013-01-13 21:39:00,60.4,52.8,29.66,ESE,112,5.1,-999.0,76,-99.99,,,0.00,Acu-Link.com,2013-01-14 02:39:00,
2013-01-13 21:49:00,60.8,53.2,29.87,South,180,6.8,-999.0,76,-99.99,,,0.00,Acu-Link.com,2013-01-14 02:49:00,
2013-01-13 21:55:00,61.2,53.2,29.66,SE,135,3.1,-999.0,75,-99.99,,,0.00,Acu-Link.com,2013-01-14 02:55:00,
2013-01-13 22:06:00,61.2,53.2,29.87,ESE,112,1.7,-999.0,75,-99.99,,,0.00,Acu-Link.com,2013-01-14 03:06:00,
2013-01-13 22:10:00,60.6,52.6,29.66,SSW,202,4.3,-999.0,75,-99.99,,,0.00,Acu-Link.com,2013-01-14 03:10:00,
2013-01-13 22:23:00,60.3,52.7,29.86,North,0,2.7,-999.0,76,-99.99,,,0.00,Acu-Link.com,2013-01-14 03:23:00,
2013-01-13 22:25:00,60.1,52.8,29.65,NE,45,2.2,-999.0,77,-99.99,,,0.00,Acu-Link.com,2013-01-14 03:25:00,
2013-01-13 22:40:00,59.2,52.7,29.65,ESE,112,4.3,-999.0,79,-99.99,,,0.00,Acu-Link.com,2013-01-14 03:40:00,
2013-01-13 22:56:00,59.0,52.5,29.65,East,90,1.1,-999.0,79,-99.99,,,0.00,Acu-Link.com,2013-01-14 03:56:00,
2013-01-13 22:59:00,58.8,52.3,29.87,NE,45,2.2,-999.0,79,-99.99,,,0.00,Acu-Link.com,2013-01-14 03:59:00,
2013-01-13 23:11:00,58.5,52.3,29.66,SW,225,1.6,-999.0,80,-99.99,,,0.00,Acu-Link.com,2013-01-14 04:11:00,
2013-01-13 23:14:00,58.3,52.2,29.89,West,270,1.7,-999.0,80,-99.99,,,0.00,Acu-Link.com,2013-01-14 04:14:00,
2013-01-13 23:26:00,58.1,52.3,29.67,SSE,157,1.1,-999.0,81,-99.99,,,0.00,Acu-Link.com,2013-01-14 04:26:00,
2013-01-13 23:40:00,57.9,52.1,29.88,SSE,157,3.2,-999.0,81,-99.99,,,0.00,Acu-Link.com,2013-01-14 04:40:00,
2013-01-13 23:41:00,57.6,52.8,29.68,South,180,2.7,-999.0,84,-99.99,,,0.00,Acu-Link.com,2013-01-14 04:41:00,
2013-01-13 23:55:00,56.5,52.7,29.91,West,270,6.8,-999.0,87,-99.99,,,0.00,Acu-Link.com,2013-01-14 04:55:00,
2013-01-13 23:56:00,56.5,53.0,29.68,WSW,247,9.4,-999.0,88,-99.99,,,0.00,Acu-Link.com,2013-01-14 04:56:00,